Time;durP1;ratioP1;P1;durP2;ratioP2;P2;SDS_P1;SDS_P2;PMS_P1;PMS_P2;Temp;Humidity;BMP_temperature;BMP_pressure;BME280_temperature;BME280_humidity;BME280_pressure;Samples;Min_cycle;Max_cycle;Signal;HPM_P1;HPM_P2
2022/01/25 00:25:42;;;;;;;7.20;6.63;;;;;;;;;;4964620;28;20205;-69
2022/01/25 00:28:20;;;;;;;8.03;7.40;;;;;;;;;;4973466;28;20220;-69
2022/01/25 00:31:05;;;;;;;7.80;7.20;;;;;;;;;;4968030;28;20205;-69
2022/01/25 00:33:40;;;;;;;8.00;7.30;;;;;;;;;;4962243;28;20813;-69
2022/01/25 00:36:26;;;;;;;8.10;7.50;;;;;;;;;;4966911;28;20205;-69
2022/01/25 00:39:06;;;;;;;8.73;8.00;;;;;;;;;;4968402;28;20201;-69
2022/01/25 00:41:35;;;;;;;8.23;7.53;;;;;;;;;;4985244;28;20219;-69
2022/01/25 00:44:05;;;;;;;8.40;7.70;;;;;;;;;;5039849;28;20206;-69
2022/01/25 00:46:36;;;;;;;8.30;7.50;;;;;;;;;;5031217;28;20295;-69
2022/01/25 00:49:07;;;;;;;9.23;8.43;;;;;;;;;;5026839;28;20218;-69
2022/01/25 00:56:54;;;;;;;8.17;7.47;;;;;;;;;;5025464;28;20214;-69
2022/01/25 00:59:30;;;;;;;8.43;7.73;;;;;;;;;;5018499;28;20664;-69
2022/01/25 01:02:05;;;;;;;8.97;8.27;;;;;;;;;;5028451;28;20747;-68
2022/01/25 01:04:35;;;;;;;7.73;7.13;;;;;;;;;;5014872;28;20237;-69
2022/01/25 01:07:30;;;;;;;8.43;7.70;;;;;;;;;;5033207;28;20392;-69
2022/01/25 01:10:01;;;;;;;9.27;8.50;;;;;;;;;;5036363;28;20257;-69
2022/01/25 01:15:35;;;;;;;9.03;8.33;;;;;;;;;;5031772;28;20276;-69
2022/01/25 01:29:34;;;;;;;9.80;8.90;;;;;;;;;;5019993;28;20203;-68
2022/01/25 01:32:33;;;;;;;9.93;9.03;;;;;;;;;;5030085;28;20198;-69
2022/01/25 01:48:32;;;;;;;10.13;9.23;;;;;;;;;;5026888;28;20209;-69
2022/01/25 01:51:13;;;;;;;10.30;9.50;;;;;;;;;;5021264;28;20218;-69
2022/01/25 01:53:42;;;;;;;10.03;9.17;;;;;;;;;;5025476;28;20226;-69
2022/01/25 01:56:14;;;;;;;10.37;9.37;;;;;;;;;;5020923;28;20191;-69
2022/01/25 01:58:44;;;;;;;10.50;9.53;;;;;;;;;;5008513;28;20211;-69
2022/01/25 02:01:15;;;;;;;10.90;9.90;;;;;;;;;;5009447;28;20274;-69
2022/01/25 02:03:45;;;;;;;11.00;10.00;;;;;;;;;;5007300;28;20218;-69
2022/01/25 02:06:15;;;;;;;11.77;10.63;;;;;;;;;;5026630;28;20206;-69
2022/01/25 02:08:49;;;;;;;11.53;10.53;;;;;;;;;;5011561;28;20203;-70
2022/01/25 02:11:20;;;;;;;10.87;9.97;;;;;;;;;;5027409;28;20643;-69
2022/01/25 02:13:50;;;;;;;12.33;11.30;;;;;;;;;;5026621;28;20289;-69
2022/01/25 02:22:27;;;;;;;13.73;12.47;;;;;;;;;;5026639;28;20555;-69
2022/01/25 02:24:59;;;;;;;11.97;10.87;;;;;;;;;;5024436;28;20206;-69
2022/01/25 02:27:28;;;;;;;12.90;11.80;;;;;;;;;;5006318;28;20290;-69
2022/01/25 02:29:59;;;;;;;13.30;12.10;;;;;;;;;;5009268;28;20203;-69
2022/01/25 02:32:29;;;;;;;12.83;11.73;;;;;;;;;;5028234;28;20211;-68
2022/01/25 02:35:02;;;;;;;13.33;12.10;;;;;;;;;;5034287;28;20293;-69
2022/01/25 02:37:38;;;;;;;13.33;12.23;;;;;;;;;;5028795;28;20198;-69
2022/01/25 02:40:07;;;;;;;13.60;12.40;;;;;;;;;;5035360;28;20214;-69
2022/01/25 02:42:37;;;;;;;12.97;11.80;;;;;;;;;;5002485;28;20199;-69
2022/01/25 02:45:11;;;;;;;12.83;11.73;;;;;;;;;;5026994;28;20623;-69
2022/01/25 02:50:30;;;;;;;12.73;11.63;;;;;;;;;;5026640;28;20207;-69
2022/01/25 02:53:02;;;;;;;13.10;11.90;;;;;;;;;;5020048;28;20207;-69
2022/01/25 02:55:33;;;;;;;13.00;11.80;;;;;;;;;;5031485;28;20218;-69
2022/01/25 02:58:05;;;;;;;13.40;12.20;;;;;;;;;;5036893;28;20202;-69
2022/01/25 03:00:47;;;;;;;12.90;11.80;;;;;;;;;;5025501;28;20246;-69
2022/01/25 03:03:19;;;;;;;13.67;12.40;;;;;;;;;;5029389;28;20237;-69
2022/01/25 03:05:50;;;;;;;13.33;11.97;;;;;;;;;;5031598;28;20221;-69
2022/01/25 03:08:21;;;;;;;14.17;12.87;;;;;;;;;;5034261;28;20237;-69
2022/01/25 03:10:51;;;;;;;14.10;12.80;;;;;;;;;;5028242;28;20215;-69
2022/01/25 03:13:27;;;;;;;13.60;12.40;;;;;;;;;;5042464;28;20537;-69
2022/01/25 03:16:01;;;;;;;14.30;12.90;;;;;;;;;;5028692;28;20217;-69
2022/01/25 03:18:41;;;;;;;13.90;12.67;;;;;;;;;;5037583;28;20191;-70
2022/01/25 03:24:01;;;;;;;15.07;13.67;;;;;;;;;;5030158;28;20221;-69
2022/01/25 03:26:33;;;;;;;14.20;13.00;;;;;;;;;;5030429;28;20249;-69
2022/01/25 03:29:05;;;;;;;15.57;13.97;;;;;;;;;;5024876;28;20233;-69
2022/01/25 03:31:36;;;;;;;15.43;14.07;;;;;;;;;;5030044;28;20293;-69
2022/01/25 03:34:06;;;;;;;15.30;13.90;;;;;;;;;;5025266;28;20244;-69
2022/01/25 03:36:35;;;;;;;14.53;13.20;;;;;;;;;;5012690;28;20196;-69
2022/01/25 03:39:06;;;;;;;15.13;13.73;;;;;;;;;;5009281;28;20655;-69
2022/01/25 03:41:36;;;;;;;15.23;13.83;;;;;;;;;;5009560;28;20195;-69
2022/01/25 03:44:10;;;;;;;14.83;13.43;;;;;;;;;;5003990;28;20624;-69
2022/01/25 03:52:09;;;;;;;16.43;15.03;;;;;;;;;;5006541;28;20204;-69
2022/01/25 03:54:42;;;;;;;15.70;14.30;;;;;;;;;;5002019;28;20219;-69
2022/01/25 03:57:15;;;;;;;16.57;14.97;;;;;;;;;;5008301;28;20208;-69
2022/01/25 03:59:46;;;;;;;15.43;14.03;;;;;;;;;;5007367;28;20204;-69
2022/01/25 04:02:20;;;;;;;15.60;14.20;;;;;;;;;;4995799;28;20211;-69
2022/01/25 04:04:51;;;;;;;16.07;14.60;;;;;;;;;;5004108;28;20212;-70
2022/01/25 04:07:29;;;;;;;16.37;14.77;;;;;;;;;;5012763;28;20219;-69
2022/01/25 04:10:01;;;;;;;17.43;15.83;;;;;;;;;;5012641;28;20270;-69
2022/01/25 04:12:31;;;;;;;16.23;14.63;;;;;;;;;;5008571;28;20672;-69
2022/01/25 04:15:02;;;;;;;15.10;13.70;;;;;;;;;;5002905;28;20318;-69
2022/01/25 04:17:34;;;;;;;15.93;14.43;;;;;;;;;;5011792;28;20199;-70
2022/01/25 04:20:22;;;;;;;16.37;14.87;;;;;;;;;;4995374;28;20211;-69
2022/01/25 04:25:47;;;;;;;16.27;14.77;;;;;;;;;;5008970;28;20207;-69
2022/01/25 04:28:19;;;;;;;15.77;14.27;;;;;;;;;;5004193;28;20665;-69
2022/01/25 04:30:48;;;;;;;15.57;14.07;;;;;;;;;;5008338;28;20207;-69
2022/01/25 04:33:22;;;;;;;17.60;16.00;;;;;;;;;;5011045;28;20195;-69
2022/01/25 04:36:25;;;;;;;15.90;14.50;;;;;;;;;;5024113;28;20242;-69
2022/01/25 04:50:18;;;;;;;16.57;14.97;;;;;;;;;;5022549;28;20635;-69
2022/01/25 04:52:58;;;;;;;16.57;15.07;;;;;;;;;;5010238;28;20207;-70
2022/01/25 04:55:39;;;;;;;16.47;14.97;;;;;;;;;;5028421;28;20231;-69
2022/01/25 04:58:21;;;;;;;16.23;14.73;;;;;;;;;;5010579;28;20204;-69
2022/01/25 05:00:50;;;;;;;16.40;14.93;;;;;;;;;;5023729;28;20207;-69
2022/01/25 05:03:28;;;;;;;16.47;15.07;;;;;;;;;;5022069;28;20239;-69
2022/01/25 05:06:12;;;;;;;15.53;14.10;;;;;;;;;;5025550;28;20206;-69
2022/01/25 05:08:49;;;;;;;15.03;13.73;;;;;;;;;;5041276;28;20208;-69
2022/01/25 05:11:33;;;;;;;15.67;14.27;;;;;;;;;;5026808;28;20207;-69
2022/01/25 05:16:46;;;;;;;16.17;14.57;;;;;;;;;;5026615;28;20225;-69
2022/01/25 05:22:18;;;;;;;16.23;14.73;;;;;;;;;;5009290;28;20621;-69
2022/01/25 05:24:52;;;;;;;16.70;15.07;;;;;;;;;;5024412;28;20248;-69
2022/01/25 05:27:21;;;;;;;15.53;14.13;;;;;;;;;;5006869;28;20215;-69
2022/01/25 05:29:50;;;;;;;16.50;15.00;;;;;;;;;;5028482;28;20234;-69
2022/01/25 05:32:24;;;;;;;17.13;15.60;;;;;;;;;;5036184;28;20210;-69
2022/01/25 05:34:53;;;;;;;17.50;15.80;;;;;;;;;;5020727;28;20566;-69
2022/01/25 05:37:24;;;;;;;16.57;15.07;;;;;;;;;;5013373;28;20194;-69
2022/01/25 05:39:54;;;;;;;16.37;14.77;;;;;;;;;;5005014;28;20207;-69
2022/01/25 05:45:37;;;;;;;16.90;15.30;;;;;;;;;;4994986;28;20208;-69
2022/01/25 05:48:06;;;;;;;16.90;15.27;;;;;;;;;;5010179;28;20188;-69
2022/01/25 05:50:37;;;;;;;16.77;15.17;;;;;;;;;;4989240;28;20219;-69
2022/01/25 05:53:08;;;;;;;16.83;15.33;;;;;;;;;;4991412;28;20219;-70
2022/01/25 05:55:40;;;;;;;16.53;14.97;;;;;;;;;;5003312;28;20224;-69
2022/01/25 05:58:11;;;;;;;17.03;15.43;;;;;;;;;;5010727;28;20200;-69
2022/01/25 06:00:40;;;;;;;16.77;15.17;;;;;;;;;;5012658;28;20198;-69
2022/01/25 06:03:09;;;;;;;16.97;15.33;;;;;;;;;;5008268;28;20266;-70
2022/01/25 06:05:39;;;;;;;16.53;15.00;;;;;;;;;;5005922;28;20781;-69
2022/01/25 06:08:13;;;;;;;17.83;16.10;;;;;;;;;;5001827;28;20666;-69
2022/01/25 06:10:45;;;;;;;17.17;15.57;;;;;;;;;;5007738;28;20241;-69
2022/01/25 06:13:31;;;;;;;16.47;15.00;;;;;;;;;;5006117;28;20305;-69
2022/01/25 06:16:05;;;;;;;18.13;15.83;;;;;;;;;;5004354;28;20242;-68
2022/01/25 06:18:37;;;;;;;17.83;16.07;;;;;;;;;;4999898;28;20212;-68
2022/01/25 06:21:09;;;;;;;17.67;16.00;;;;;;;;;;5004466;28;20199;-68
2022/01/25 06:23:39;;;;;;;17.33;15.73;;;;;;;;;;5007781;28;20196;-68
2022/01/25 06:26:08;;;;;;;16.87;15.37;;;;;;;;;;5008511;28;20202;-68
2022/01/25 06:28:38;;;;;;;16.37;14.87;;;;;;;;;;5004047;28;20220;-70
2022/01/25 06:31:10;;;;;;;17.67;16.03;;;;;;;;;;5005021;28;20196;-69
2022/01/25 06:33:44;;;;;;;17.47;15.87;;;;;;;;;;5007489;28;20269;-69
2022/01/25 06:36:19;;;;;;;16.73;15.20;;;;;;;;;;5006676;28;20233;-70
2022/01/25 06:38:48;;;;;;;17.23;15.53;;;;;;;;;;5002440;28;20216;-69
2022/01/25 06:41:18;;;;;;;18.07;16.43;;;;;;;;;;5007033;28;20226;-70
2022/01/25 06:43:48;;;;;;;16.83;15.33;;;;;;;;;;5006149;28;20184;-70
2022/01/25 06:46:20;;;;;;;17.70;16.13;;;;;;;;;;5007022;28;20562;-70
2022/01/25 06:48:53;;;;;;;17.93;16.17;;;;;;;;;;4988067;28;20199;-71
2022/01/25 06:51:25;;;;;;;17.83;16.13;;;;;;;;;;4995486;28;20212;-69
2022/01/25 06:53:55;;;;;;;18.40;16.60;;;;;;;;;;5006062;28;20242;-70
2022/01/25 06:56:36;;;;;;;19.00;17.10;;;;;;;;;;5004176;28;20286;-70
2022/01/25 06:59:05;;;;;;;18.87;16.97;;;;;;;;;;5002743;28;20191;-70
2022/01/25 07:01:35;;;;;;;17.93;16.23;;;;;;;;;;5002682;28;20195;-69
2022/01/25 07:04:05;;;;;;;17.97;16.20;;;;;;;;;;4987909;28;20531;-69
2022/01/25 07:06:35;;;;;;;18.13;16.43;;;;;;;;;;5006741;28;20200;-69
2022/01/25 07:09:09;;;;;;;18.10;16.20;;;;;;;;;;5002415;28;20272;-69
2022/01/25 07:11:37;;;;;;;18.40;16.60;;;;;;;;;;5004811;28;20203;-69
2022/01/25 07:14:06;;;;;;;18.37;16.67;;;;;;;;;;5004446;28;20207;-69
2022/01/25 07:16:35;;;;;;;17.90;16.10;;;;;;;;;;5011519;28;20665;-69
2022/01/25 07:19:08;;;;;;;18.27;16.50;;;;;;;;;;5004174;28;20553;-70
2022/01/25 07:21:40;;;;;;;19.27;17.07;;;;;;;;;;4998612;28;20239;-68
2022/01/25 07:24:12;;;;;;;19.40;17.50;;;;;;;;;;5006373;28;20195;-68
2022/01/25 07:26:41;;;;;;;19.60;17.60;;;;;;;;;;5011324;28;20495;-67
2022/01/25 07:29:14;;;;;;;25.43;19.27;;;;;;;;;;5000049;28;20216;-70
2022/01/25 07:31:41;;;;;;;26.07;19.70;;;;;;;;;;5015438;28;20215;-68
2022/01/25 07:34:25;;;;;;;28.80;19.30;;;;;;;;;;5002707;28;20719;-69
2022/01/25 07:37:00;;;;;;;85.43;30.63;;;;;;;;;;5031571;28;20671;-68
2022/01/25 07:39:33;;;;;;;84.13;30.93;;;;;;;;;;5020153;28;20237;-70
2022/01/25 07:42:07;;;;;;;74.90;31.37;;;;;;;;;;5036558;28;20203;-68
2022/01/25 07:44:58;;;;;;;72.40;31.10;;;;;;;;;;5026907;28;20306;-67
2022/01/25 07:47:29;;;;;;;81.33;31.53;;;;;;;;;;4983428;28;20711;-67
2022/01/25 07:49:57;;;;;;;58.63;29.07;;;;;;;;;;5023586;28;20652;-67
2022/01/25 07:52:27;;;;;;;62.43;28.63;;;;;;;;;;4980174;28;20230;-68
2022/01/25 07:54:56;;;;;;;50.33;26.73;;;;;;;;;;5019762;28;20210;-69
2022/01/25 07:57:27;;;;;;;49.00;26.57;;;;;;;;;;5029233;28;20696;-68
2022/01/25 07:59:59;;;;;;;41.57;26.20;;;;;;;;;;5029995;28;20203;-67
2022/01/25 08:02:30;;;;;;;43.23;25.83;;;;;;;;;;5030694;28;20199;-70
2022/01/25 08:05:24;;;;;;;44.83;24.90;;;;;;;;;;5012663;28;20670;-68
2022/01/25 08:08:07;;;;;;;39.90;24.73;;;;;;;;;;4948270;28;20206;-67
2022/01/25 08:10:38;;;;;;;43.33;24.20;;;;;;;;;;4953617;28;20241;-67
2022/01/25 08:13:08;;;;;;;33.40;24.27;;;;;;;;;;4947883;28;20209;-68
2022/01/25 08:15:54;;;;;;;34.43;24.50;;;;;;;;;;4939888;28;20237;-70
2022/01/25 08:18:39;;;;;;;34.70;23.60;;;;;;;;;;4878367;29;20689;-63
2022/01/25 08:21:09;;;;;;;30.50;23.17;;;;;;;;;;4886795;29;20223;-66
2022/01/25 08:23:48;;;;;;;34.97;24.47;;;;;;;;;;4859086;29;20259;-64
2022/01/25 08:26:36;;;;;;;31.83;24.57;;;;;;;;;;4889812;29;20290;-66
2022/01/25 08:29:18;;;;;;;30.40;23.30;;;;;;;;;;4890258;29;20585;-68
2022/01/25 08:32:12;;;;;;;30.30;21.13;;;;;;;;;;4854997;29;20208;-62
2022/01/25 08:35:01;;;;;;;28.17;19.17;;;;;;;;;;4882681;29;20753;-65
2022/01/25 08:37:45;;;;;;;22.60;16.23;;;;;;;;;;4883266;29;20220;-64
2022/01/25 08:40:30;;;;;;;22.67;15.27;;;;;;;;;;4885467;29;20230;-66
2022/01/25 08:43:13;;;;;;;18.33;15.23;;;;;;;;;;4884052;29;20211;-65
2022/01/25 08:46:03;;;;;;;23.20;15.90;;;;;;;;;;4912972;28;20239;-65
2022/01/25 08:48:45;;;;;;;20.33;14.97;;;;;;;;;;4913994;28;20628;-65
2022/01/25 08:51:15;;;;;;;19.70;14.03;;;;;;;;;;5022871;28;20538;-65
2022/01/25 08:53:48;;;;;;;15.23;13.23;;;;;;;;;;5028101;28;20207;-65
2022/01/25 08:56:44;;;;;;;14.07;12.10;;;;;;;;;;5014867;28;20322;-64
2022/01/25 08:59:35;;;;;;;17.40;12.17;;;;;;;;;;5026553;28;20975;-64
2022/01/25 09:02:07;;;;;;;14.77;12.30;;;;;;;;;;5019043;28;20195;-62
2022/01/25 09:04:40;;;;;;;14.60;11.57;;;;;;;;;;5024222;28;20210;-62
2022/01/25 09:07:10;;;;;;;16.53;12.93;;;;;;;;;;5024816;28;20199;-64
2022/01/25 09:09:43;;;;;;;17.17;12.30;;;;;;;;;;5027563;28;20625;-65
2022/01/25 09:12:12;;;;;;;15.47;11.70;;;;;;;;;;5026870;28;20222;-65
2022/01/25 09:14:41;;;;;;;17.73;12.30;;;;;;;;;;5019570;28;20199;-65
2022/01/25 09:17:10;;;;;;;14.87;12.53;;;;;;;;;;5022481;28;20238;-64
2022/01/25 09:19:41;;;;;;;13.00;11.60;;;;;;;;;;5024525;28;20841;-65
2022/01/25 09:22:12;;;;;;;13.20;11.70;;;;;;;;;;5047320;28;20198;-70
2022/01/25 09:24:42;;;;;;;20.70;18.53;;;;;;;;;;5027461;28;20211;-65
2022/01/25 09:27:18;;;;;;;20.47;18.37;;;;;;;;;;5028787;28;20214;-64
2022/01/25 09:29:51;;;;;;;18.47;16.67;;;;;;;;;;5023717;28;20222;-64
2022/01/25 09:32:20;;;;;;;20.00;17.70;;;;;;;;;;5027992;28;20238;-63
2022/01/25 09:34:49;;;;;;;19.53;17.50;;;;;;;;;;5021466;28;20243;-63
2022/01/25 09:37:20;;;;;;;19.07;17.17;;;;;;;;;;5019968;28;20755;-64
2022/01/25 09:39:52;;;;;;;20.50;18.30;;;;;;;;;;5018757;28;20225;-65
2022/01/25 09:42:20;;;;;;;20.80;18.57;;;;;;;;;;5013355;28;20207;-62
2022/01/25 09:44:52;;;;;;;20.03;17.93;;;;;;;;;;5021218;28;20203;-63
2022/01/25 09:47:24;;;;;;;20.10;18.20;;;;;;;;;;5021660;28;20571;-64
2022/01/25 09:49:53;;;;;;;18.93;17.13;;;;;;;;;;5021807;28;20224;-63
2022/01/25 09:52:29;;;;;;;19.47;17.57;;;;;;;;;;5013734;28;20220;-65
2022/01/25 09:55:01;;;;;;;21.57;19.30;;;;;;;;;;5014247;28;20217;-65
2022/01/25 09:57:39;;;;;;;19.97;17.90;;;;;;;;;;5002644;28;20207;-65
2022/01/25 10:00:11;;;;;;;21.40;19.30;;;;;;;;;;5020045;28;20298;-64
2022/01/25 10:05:56;;;;;;;21.93;19.73;;;;;;;;;;5020342;28;20234;-63
2022/01/25 10:08:28;;;;;;;22.70;20.50;;;;;;;;;;5023183;28;20233;-63
2022/01/25 10:11:11;;;;;;;21.73;19.63;;;;;;;;;;5021932;28;20260;-64
2022/01/25 10:13:45;;;;;;;20.70;18.60;;;;;;;;;;5015516;28;20203;-64
2022/01/25 10:16:17;;;;;;;21.67;19.40;;;;;;;;;;5005348;28;20710;-64
2022/01/25 10:18:50;;;;;;;22.63;20.30;;;;;;;;;;5004342;28;20203;-64
2022/01/25 10:21:24;;;;;;;22.93;20.73;;;;;;;;;;5020807;28;20795;-64
2022/01/25 10:24:13;;;;;;;23.63;21.33;;;;;;;;;;5024924;28;20241;-65
2022/01/25 10:26:51;;;;;;;24.53;22.13;;;;;;;;;;5025884;28;20203;-64
2022/01/25 10:29:37;;;;;;;24.63;22.10;;;;;;;;;;5020731;28;20648;-64
2022/01/25 10:32:15;;;;;;;24.17;21.80;;;;;;;;;;5024762;28;20199;-64
2022/01/25 10:34:48;;;;;;;24.70;22.23;;;;;;;;;;5007482;28;20802;-64
2022/01/25 10:37:20;;;;;;;24.77;22.20;;;;;;;;;;5028579;28;20214;-65
2022/01/25 10:39:52;;;;;;;25.03;22.50;;;;;;;;;;5021310;28;20618;-64
2022/01/25 10:42:41;;;;;;;24.53;22.13;;;;;;;;;;5019273;28;20202;-65
2022/01/25 10:45:17;;;;;;;25.07;22.57;;;;;;;;;;5024191;28;20265;-63
2022/01/25 10:47:51;;;;;;;26.43;23.67;;;;;;;;;;5026045;28;20688;-63
2022/01/25 10:50:39;;;;;;;25.23;22.73;;;;;;;;;;5025355;28;20203;-63
2022/01/25 10:53:15;;;;;;;26.13;23.43;;;;;;;;;;5025459;28;20206;-63
2022/01/25 10:55:47;;;;;;;26.70;23.97;;;;;;;;;;5025613;28;20230;-64
2022/01/25 10:58:17;;;;;;;28.53;24.60;;;;;;;;;;5009110;28;20750;-64
2022/01/25 11:00:53;;;;;;;26.20;23.60;;;;;;;;;;5021839;28;20792;-64
2022/01/25 11:03:30;;;;;;;28.20;25.10;;;;;;;;;;5004333;28;20258;-65
2022/01/25 11:06:08;;;;;;;26.03;23.63;;;;;;;;;;5017594;28;20265;-64
2022/01/25 11:08:44;;;;;;;27.30;24.50;;;;;;;;;;5021843;28;20828;-65
2022/01/25 11:11:22;;;;;;;26.87;24.07;;;;;;;;;;5020557;28;20585;-65
2022/01/25 11:14:49;;;;;;;24.50;22.17;;;;;;;;;;5024977;28;20204;-62
2022/01/25 11:16:48;;;;;;;22.73;20.40;;;;;;;;;;5020493;28;20222;-61
2022/01/25 11:19:25;;;;;;;22.80;20.37;;;;;;;;;;5031568;28;20210;-61
2022/01/25 11:22:00;;;;;;;23.57;20.57;;;;;;;;;;5026496;28;20480;-68
2022/01/25 11:24:32;;;;;;;20.97;17.40;;;;;;;;;;5028065;28;20203;-69
2022/01/25 11:27:06;;;;;;;18.50;16.60;;;;;;;;;;5022759;28;20212;-67
2022/01/25 11:29:40;;;;;;;17.40;15.57;;;;;;;;;;5021498;28;20801;-67
2022/01/25 11:32:20;;;;;;;17.10;15.40;;;;;;;;;;5029568;28;20202;-66
2022/01/25 11:35:07;;;;;;;16.87;15.20;;;;;;;;;;5026581;28;20603;-68
2022/01/25 11:37:40;;;;;;;15.23;13.90;;;;;;;;;;5031891;28;20215;-67
2022/01/25 11:40:27;;;;;;;16.23;14.70;;;;;;;;;;5019865;28;20238;-69
2022/01/25 11:43:01;;;;;;;16.20;14.70;;;;;;;;;;5027339;28;20664;-69
2022/01/25 11:45:35;;;;;;;15.23;13.53;;;;;;;;;;5038823;28;20653;-68
2022/01/25 11:48:06;;;;;;;14.80;13.30;;;;;;;;;;5012122;28;20183;-67
2022/01/25 11:50:37;;;;;;;15.03;13.53;;;;;;;;;;5028782;28;20203;-67
2022/01/25 11:53:13;;;;;;;15.20;13.63;;;;;;;;;;5009065;28;20546;-68
2022/01/25 11:55:48;;;;;;;14.83;13.33;;;;;;;;;;5029833;28;20211;-68
2022/01/25 11:58:30;;;;;;;15.03;13.67;;;;;;;;;;5030276;28;20207;-67
2022/01/25 12:01:20;;;;;;;14.33;13.00;;;;;;;;;;5033758;28;20199;-65
2022/01/25 12:04:12;;;;;;;15.03;13.43;;;;;;;;;;5025008;28;20214;-67
2022/01/25 12:06:59;;;;;;;14.13;12.83;;;;;;;;;;5013758;28;20207;-66
2022/01/25 12:09:52;;;;;;;14.20;12.80;;;;;;;;;;5017551;28;20203;-66
2022/01/25 12:12:24;;;;;;;14.37;13.07;;;;;;;;;;5027730;28;20212;-67
2022/01/25 12:14:58;;;;;;;14.33;12.83;;;;;;;;;;5026461;28;20199;-67
2022/01/25 12:17:27;;;;;;;15.10;13.60;;;;;;;;;;5025841;28;20688;-69
2022/01/25 12:20:06;;;;;;;13.10;11.90;;;;;;;;;;5028922;28;20229;-66
2022/01/25 12:22:39;;;;;;;13.87;12.67;;;;;;;;;;5028703;28;20543;-65
2022/01/25 12:25:25;;;;;;;13.93;12.73;;;;;;;;;;5026589;28;20203;-65
2022/01/25 12:28:10;;;;;;;13.13;12.00;;;;;;;;;;5006057;28;20227;-65
2022/01/25 12:30:44;;;;;;;14.20;12.77;;;;;;;;;;5029912;28;20286;-66
2022/01/25 12:33:14;;;;;;;13.90;12.70;;;;;;;;;;5006895;28;20297;-66
2022/01/25 12:36:20;;;;;;;12.97;11.77;;;;;;;;;;5027775;28;20233;-66
2022/01/25 12:38:54;;;;;;;14.07;12.87;;;;;;;;;;4982972;28;20211;-66
2022/01/25 12:41:31;;;;;;;13.30;12.13;;;;;;;;;;4972157;28;20216;-66
2022/01/25 12:44:07;;;;;;;13.63;12.43;;;;;;;;;;4988240;28;20270;-67
2022/01/25 12:46:45;;;;;;;13.77;12.50;;;;;;;;;;4986466;28;20290;-68
2022/01/25 12:49:17;;;;;;;13.40;12.20;;;;;;;;;;4986205;28;20208;-68
2022/01/25 12:51:52;;;;;;;13.60;12.30;;;;;;;;;;4982157;28;20354;-67
2022/01/25 12:54:28;;;;;;;14.00;12.70;;;;;;;;;;4987072;28;20208;-67
2022/01/25 12:57:12;;;;;;;14.23;13.03;;;;;;;;;;4989067;28;20586;-67
2022/01/25 12:59:50;;;;;;;20.37;18.53;;;;;;;;;;4988522;28;20218;-68
2022/01/25 13:02:24;;;;;;;17.03;15.20;;;;;;;;;;4989481;28;20212;-65
2022/01/25 13:04:56;;;;;;;18.00;14.80;;;;;;;;;;4983308;28;20215;-65
2022/01/25 13:07:27;;;;;;;14.27;12.87;;;;;;;;;;4990823;28;20270;-67
2022/01/25 13:09:56;;;;;;;13.90;12.17;;;;;;;;;;5011608;28;20218;-68
2022/01/25 13:12:36;;;;;;;13.50;12.17;;;;;;;;;;5029142;28;20215;-68
2022/01/25 13:15:27;;;;;;;13.70;12.20;;;;;;;;;;5004919;28;20620;-67
2022/01/25 13:17:55;;;;;;;12.43;11.23;;;;;;;;;;5022327;28;20250;-65
2022/01/25 13:20:29;;;;;;;13.63;11.73;;;;;;;;;;5030598;28;20198;-66
2022/01/25 13:23:01;;;;;;;12.83;11.57;;;;;;;;;;5034504;28;20194;-67
2022/01/25 13:26:06;;;;;;;13.80;11.97;;;;;;;;;;5027917;28;20195;-68
2022/01/25 13:31:22;;;;;;;12.00;10.87;;;;;;;;;;5029099;28;20190;-68
2022/01/25 13:33:54;;;;;;;12.20;11.10;;;;;;;;;;5028079;28;20207;-67
2022/01/25 13:36:28;;;;;;;12.30;11.13;;;;;;;;;;5013879;28;20601;-65
2022/01/25 13:39:12;;;;;;;11.67;10.63;;;;;;;;;;5020759;28;20221;-67
2022/01/25 13:41:52;;;;;;;10.83;9.93;;;;;;;;;;5030101;28;20549;-68
2022/01/25 13:47:11;;;;;;;18.57;16.97;;;;;;;;;;5026434;28;20195;-64
2022/01/25 13:49:44;;;;;;;21.07;19.27;;;;;;;;;;5025305;28;20200;-63
2022/01/25 13:52:14;;;;;;;19.60;18.00;;;;;;;;;;5025147;28;20214;-65
2022/01/25 13:54:44;;;;;;;20.57;18.43;;;;;;;;;;5026904;28;20229;-64
2022/01/25 13:57:13;;;;;;;21.87;19.70;;;;;;;;;;5029471;28;20225;-68
2022/01/25 13:59:47;;;;;;;20.60;18.53;;;;;;;;;;5024763;28;20196;-69
2022/01/25 14:02:16;;;;;;;18.47;16.87;;;;;;;;;;5031986;28;20195;-68
2022/01/25 14:04:49;;;;;;;17.90;16.40;;;;;;;;;;5023419;28;20238;-69
2022/01/25 14:07:23;;;;;;;19.17;17.43;;;;;;;;;;5036892;28;20201;-68
2022/01/25 14:09:54;;;;;;;17.97;16.37;;;;;;;;;;5006476;28;20218;-68
2022/01/25 14:23:57;;;;;;;16.43;14.83;;;;;;;;;;4993130;28;20203;-71
2022/01/25 14:26:30;;;;;;;16.73;15.27;;;;;;;;;;5013568;28;20194;-72
2022/01/25 14:29:14;;;;;;;16.00;14.67;;;;;;;;;;5020476;28;20207;-72
2022/01/25 14:31:46;;;;;;;16.27;14.87;;;;;;;;;;5011533;28;20246;-70
2022/01/25 14:34:18;;;;;;;16.73;15.03;;;;;;;;;;5030102;28;20218;-69
2022/01/25 14:36:59;;;;;;;16.43;15.03;;;;;;;;;;5025899;28;20714;-68
2022/01/25 14:39:30;;;;;;;18.87;14.47;;;;;;;;;;5024527;28;20238;-68
2022/01/25 14:42:01;;;;;;;16.73;15.33;;;;;;;;;;5028294;28;20223;-70
2022/01/25 14:44:30;;;;;;;15.60;14.20;;;;;;;;;;5035296;28;20195;-69
2022/01/25 14:47:01;;;;;;;15.73;14.23;;;;;;;;;;5000485;28;20929;-68
2022/01/25 14:49:41;;;;;;;16.13;14.73;;;;;;;;;;5022001;28;20219;-68
2022/01/25 14:52:09;;;;;;;15.40;14.10;;;;;;;;;;5024307;28;20218;-69
2022/01/25 14:54:43;;;;;;;15.80;14.27;;;;;;;;;;5017585;28;20238;-68
2022/01/25 14:57:19;;;;;;;15.83;14.33;;;;;;;;;;5027734;28;20228;-73
2022/01/25 14:59:55;;;;;;;15.27;13.87;;;;;;;;;;5029655;28;20211;-69
2022/01/25 15:02:25;;;;;;;15.43;13.93;;;;;;;;;;5030739;28;20198;-69
2022/01/25 15:05:03;;;;;;;14.90;13.67;;;;;;;;;;5005360;28;20706;-69
2022/01/25 15:07:35;;;;;;;14.53;13.23;;;;;;;;;;5028855;28;20210;-68
2022/01/25 15:10:10;;;;;;;14.33;13.13;;;;;;;;;;5028787;28;20235;-71
2022/01/25 15:12:47;;;;;;;16.17;14.60;;;;;;;;;;5030826;28;20210;-68
2022/01/25 15:15:35;;;;;;;15.73;14.43;;;;;;;;;;5026927;28;20222;-69
2022/01/25 15:18:04;;;;;;;14.77;13.47;;;;;;;;;;5029184;28;21014;-68
2022/01/25 15:20:34;;;;;;;14.67;13.37;;;;;;;;;;5030780;28;20524;-69
2022/01/25 15:23:04;;;;;;;14.80;13.40;;;;;;;;;;5029244;28;20198;-68
2022/01/25 15:25:36;;;;;;;15.23;13.93;;;;;;;;;;5028036;28;20752;-69
2022/01/25 15:28:04;;;;;;;15.00;13.67;;;;;;;;;;5028513;28;20198;-70
2022/01/25 15:30:36;;;;;;;14.77;13.50;;;;;;;;;;5043929;28;20206;-71
2022/01/25 15:33:07;;;;;;;13.93;12.63;;;;;;;;;;5027681;28;20203;-68
2022/01/25 15:35:37;;;;;;;14.57;13.27;;;;;;;;;;5020495;28;20251;-69
2022/01/25 15:38:11;;;;;;;15.43;13.90;;;;;;;;;;5009602;28;20208;-69
2022/01/25 15:40:42;;;;;;;14.47;13.07;;;;;;;;;;5007271;28;20218;-68
2022/01/25 15:43:22;;;;;;;15.50;14.13;;;;;;;;;;5008635;28;20199;-69
2022/01/25 15:48:30;;;;;;;15.27;13.97;;;;;;;;;;5011206;28;20684;-71
2022/01/25 15:51:01;;;;;;;16.30;14.90;;;;;;;;;;5002605;28;20269;-70
2022/01/25 15:53:32;;;;;;;15.73;14.23;;;;;;;;;;5009405;28;20758;-70
2022/01/25 15:56:05;;;;;;;15.03;13.43;;;;;;;;;;5008335;28;20195;-68
2022/01/25 15:58:36;;;;;;;15.53;14.13;;;;;;;;;;5007366;28;20220;-67
2022/01/25 16:01:07;;;;;;;15.53;14.03;;;;;;;;;;5017818;28;20259;-68
2022/01/25 16:03:37;;;;;;;15.50;14.00;;;;;;;;;;4991815;28;20238;-69
2022/01/25 16:06:08;;;;;;;15.80;14.30;;;;;;;;;;5013776;28;20226;-69
2022/01/25 16:08:39;;;;;;;16.53;14.93;;;;;;;;;;5009501;28;20216;-69
2022/01/25 16:11:18;;;;;;;15.87;14.47;;;;;;;;;;5011844;28;20200;-69
2022/01/25 16:13:51;;;;;;;17.43;15.70;;;;;;;;;;5009345;28;20596;-69
2022/01/25 16:16:19;;;;;;;15.77;14.27;;;;;;;;;;4993008;28;20220;-67
2022/01/25 16:18:51;;;;;;;16.87;15.37;;;;;;;;;;5004767;28;20220;-68
2022/01/25 16:21:20;;;;;;;16.60;15.13;;;;;;;;;;5017565;28;20191;-68
2022/01/25 16:23:51;;;;;;;17.00;15.50;;;;;;;;;;5006897;28;20210;-69
2022/01/25 16:26:20;;;;;;;16.87;15.33;;;;;;;;;;5013225;28;20204;-67
2022/01/25 16:28:52;;;;;;;17.10;15.50;;;;;;;;;;5003763;28;20275;-69
2022/01/25 16:31:30;;;;;;;17.37;15.77;;;;;;;;;;4990597;28;20219;-68
2022/01/25 16:34:04;;;;;;;16.47;14.97;;;;;;;;;;5007697;28;20281;-68
2022/01/25 16:36:35;;;;;;;22.80;20.60;;;;;;;;;;5016415;28;20235;-66
2022/01/25 16:39:05;;;;;;;23.93;21.60;;;;;;;;;;5001829;28;20768;-66
2022/01/25 16:41:36;;;;;;;22.87;20.73;;;;;;;;;;5028545;28;20204;-66
2022/01/25 16:44:10;;;;;;;23.73;21.53;;;;;;;;;;5027584;28;20190;-66
2022/01/25 16:46:41;;;;;;;22.83;20.57;;;;;;;;;;5027095;28;20191;-66
2022/01/25 16:49:12;;;;;;;23.90;21.60;;;;;;;;;;5023714;28;20195;-66
2022/01/25 16:51:44;;;;;;;23.77;21.57;;;;;;;;;;5000094;28;20218;-66
2022/01/25 16:54:15;;;;;;;23.60;21.30;;;;;;;;;;5010014;28;20207;-66
2022/01/25 16:56:49;;;;;;;21.83;19.80;;;;;;;;;;5024483;28;20617;-65
2022/01/25 16:59:22;;;;;;;22.63;20.43;;;;;;;;;;5025618;28;20200;-65
2022/01/25 17:01:52;;;;;;;22.17;20.07;;;;;;;;;;5020124;28;20230;-66